Terminal Aerodrome Forecast
Issued by NWS Atlanta, GA

Home | Current Version | Previous Version | Text Only | Print | Product List | Glossary On
Versions: 1 2 3 4 5 6 7 8 9 10 11 12 13 14 15 16 17
000
FTUS42 KFFC 030540
TAFMCN
TAF
KMCN 030540Z 0306/0406 00000KT P6SM SCT025 BKN060
     FM030700 00000KT 6SM -DZ BR BKN025
     FM030900 00000KT 6SM -DZ BR OVC015
     FM031100 00000KT 4SM -DZ BR OVC008
     FM031500 12005KT P6SM OVC009
     FM031700 16006KT P6SM OVC012
     FM032200 19006KT P6SM OVC025=

USA.gov is the U.S. government's official web portal to all federal, state and local government web resources and services.